sensor_id;sensor_type;location;lat;lon;timestamp;temperature;humidity
76040;SHT30;64736;50.462;4.850;2023-06-14T00:02:08;19.57;55.91
76040;SHT30;64736;50.462;4.850;2023-06-14T00:04:34;19.68;55.65
76040;SHT30;64736;50.462;4.850;2023-06-14T00:07:00;19.62;55.72
76040;SHT30;64736;50.462;4.850;2023-06-14T00:09:25;19.50;55.82
76040;SHT30;64736;50.462;4.850;2023-06-14T00:11:51;19.57;55.84
76040;SHT30;64736;50.462;4.850;2023-06-14T00:14:16;19.53;56.01
76040;SHT30;64736;50.462;4.850;2023-06-14T00:16:42;19.30;56.57
76040;SHT30;64736;50.462;4.850;2023-06-14T00:19:08;19.12;57.43
76040;SHT30;64736;50.462;4.850;2023-06-14T00:21:35;19.16;57.22
76040;SHT30;64736;50.462;4.850;2023-06-14T00:24:01;19.07;57.00
76040;SHT30;64736;50.462;4.850;2023-06-14T00:26:27;19.22;56.90
76040;SHT30;64736;50.462;4.850;2023-06-14T00:28:53;19.09;57.19
76040;SHT30;64736;50.462;4.850;2023-06-14T00:31:19;19.00;56.90
76040;SHT30;64736;50.462;4.850;2023-06-14T00:33:45;19.03;56.96
76040;SHT30;64736;50.462;4.850;2023-06-14T00:36:10;19.07;56.68
76040;SHT30;64736;50.462;4.850;2023-06-14T00:38:36;19.02;56.90
76040;SHT30;64736;50.462;4.850;2023-06-14T00:41:01;18.93;57.05
76040;SHT30;64736;50.462;4.850;2023-06-14T00:43:27;19.03;57.07
76040;SHT30;64736;50.462;4.850;2023-06-14T00:45:53;18.92;57.08
76040;SHT30;64736;50.462;4.850;2023-06-14T00:48:18;18.86;57.20
76040;SHT30;64736;50.462;4.850;2023-06-14T00:50:44;18.75;57.42
76040;SHT30;64736;50.462;4.850;2023-06-14T00:53:14;18.75;57.53
76040;SHT30;64736;50.462;4.850;2023-06-14T00:55:43;18.84;57.33
76040;SHT30;64736;50.462;4.850;2023-06-14T00:58:08;18.79;57.57
76040;SHT30;64736;50.462;4.850;2023-06-14T01:00:35;18.79;57.75
76040;SHT30;64736;50.462;4.850;2023-06-14T01:03:00;18.69;58.00
76040;SHT30;64736;50.462;4.850;2023-06-14T01:05:26;18.57;58.11
76040;SHT30;64736;50.462;4.850;2023-06-14T01:13:20;18.64;58.16
76040;SHT30;64736;50.462;4.850;2023-06-14T01:15:47;18.52;58.11
76040;SHT30;64736;50.462;4.850;2023-06-14T01:18:12;18.49;58.40
76040;SHT30;64736;50.462;4.850;2023-06-14T01:20:45;18.47;58.41
76040;SHT30;64736;50.462;4.850;2023-06-14T01:23:18;18.44;58.57
76040;SHT30;64736;50.462;4.850;2023-06-14T01:25:44;18.44;58.75
76040;SHT30;64736;50.462;4.850;2023-06-14T01:28:10;18.31;58.88
76040;SHT30;64736;50.462;4.850;2023-06-14T01:30:40;18.44;58.83
76040;SHT30;64736;50.462;4.850;2023-06-14T01:33:11;18.34;59.27
76040;SHT30;64736;50.462;4.850;2023-06-14T01:35:37;18.21;59.93
76040;SHT30;64736;50.462;4.850;2023-06-14T01:38:03;18.26;60.29
76040;SHT30;64736;50.462;4.850;2023-06-14T01:40:29;18.24;60.92
76040;SHT30;64736;50.462;4.850;2023-06-14T01:42:55;18.28;60.94
76040;SHT30;64736;50.462;4.850;2023-06-14T01:45:22;18.16;61.53
76040;SHT30;64736;50.462;4.850;2023-06-14T01:47:47;18.16;62.03
76040;SHT30;64736;50.462;4.850;2023-06-14T01:50:13;18.13;61.76
76040;SHT30;64736;50.462;4.850;2023-06-14T01:52:39;18.04;61.85
76040;SHT30;64736;50.462;4.850;2023-06-14T01:55:05;17.91;62.12
76040;SHT30;64736;50.462;4.850;2023-06-14T01:57:31;17.90;62.48
76040;SHT30;64736;50.462;4.850;2023-06-14T01:59:56;17.87;62.72
76040;SHT30;64736;50.462;4.850;2023-06-14T02:02:22;17.73;63.36
76040;SHT30;64736;50.462;4.850;2023-06-14T02:04:47;17.72;63.38
76040;SHT30;64736;50.462;4.850;2023-06-14T02:07:13;17.70;63.73
76040;SHT30;64736;50.462;4.850;2023-06-14T02:09:40;17.66;63.81
76040;SHT30;64736;50.462;4.850;2023-06-14T02:12:05;17.68;64.05
76040;SHT30;64736;50.462;4.850;2023-06-14T02:14:31;17.55;64.42
76040;SHT30;64736;50.462;4.850;2023-06-14T02:16:57;17.22;65.11
76040;SHT30;64736;50.462;4.850;2023-06-14T02:19:23;17.27;64.97
76040;SHT30;64736;50.462;4.850;2023-06-14T02:21:49;17.25;64.97
76040;SHT30;64736;50.462;4.850;2023-06-14T02:24:15;17.31;65.01
76040;SHT30;64736;50.462;4.850;2023-06-14T02:26:41;17.24;65.40
76040;SHT30;64736;50.462;4.850;2023-06-14T02:29:09;17.27;65.57
76040;SHT30;64736;50.462;4.850;2023-06-14T02:31:37;17.28;65.76
76040;SHT30;64736;50.462;4.850;2023-06-14T02:34:03;17.27;65.74
76040;SHT30;64736;50.462;4.850;2023-06-14T02:36:29;17.08;66.40
76040;SHT30;64736;50.462;4.850;2023-06-14T02:38:57;16.90;66.85
76040;SHT30;64736;50.462;4.850;2023-06-14T02:41:23;16.87;67.28
76040;SHT30;64736;50.462;4.850;2023-06-14T02:43:48;17.03;67.15
76040;SHT30;64736;50.462;4.850;2023-06-14T02:46:14;17.00;66.89
76040;SHT30;64736;50.462;4.850;2023-06-14T02:48:40;16.77;67.75
76040;SHT30;64736;50.462;4.850;2023-06-14T02:51:05;16.97;67.47
76040;SHT30;64736;50.462;4.850;2023-06-14T02:53:31;16.84;67.99
76040;SHT30;64736;50.462;4.850;2023-06-14T02:55:56;16.77;68.28
76040;SHT30;64736;50.462;4.850;2023-06-14T02:58:22;16.87;68.30
76040;SHT30;64736;50.462;4.850;2023-06-14T03:00:50;16.83;68.40
76040;SHT30;64736;50.462;4.850;2023-06-14T03:03:18;16.91;68.26
76040;SHT30;64736;50.462;4.850;2023-06-14T03:05:44;16.87;68.65
76040;SHT30;64736;50.462;4.850;2023-06-14T03:08:15;16.70;68.99
76040;SHT30;64736;50.462;4.850;2023-06-14T03:10:45;16.69;69.12
76040;SHT30;64736;50.462;4.850;2023-06-14T03:13:11;16.59;69.33
76040;SHT30;64736;50.462;4.850;2023-06-14T03:15:37;16.57;69.35
76040;SHT30;64736;50.462;4.850;2023-06-14T03:18:04;16.56;69.56
76040;SHT30;64736;50.462;4.850;2023-06-14T03:20:29;16.56;69.57
76040;SHT30;64736;50.462;4.850;2023-06-14T03:22:59;16.36;69.76
76040;SHT30;64736;50.462;4.850;2023-06-14T03:25:25;16.35;69.95
76040;SHT30;64736;50.462;4.850;2023-06-14T03:27:51;16.48;69.27
76040;SHT30;64736;50.462;4.850;2023-06-14T03:30:16;16.55;69.29
76040;SHT30;64736;50.462;4.850;2023-06-14T03:32:42;16.38;69.76
76040;SHT30;64736;50.462;4.850;2023-06-14T03:35:08;16.17;70.52
76040;SHT30;64736;50.462;4.850;2023-06-14T03:37:34;16.15;70.61
76040;SHT30;64736;50.462;4.850;2023-06-14T03:40:00;16.11;71.04
76040;SHT30;64736;50.462;4.850;2023-06-14T03:42:26;15.60;72.12
76040;SHT30;64736;50.462;4.850;2023-06-14T03:44:51;15.54;72.74
76040;SHT30;64736;50.462;4.850;2023-06-14T03:47:17;16.12;70.80
76040;SHT30;64736;50.462;4.850;2023-06-14T03:49:42;16.29;70.05
76040;SHT30;64736;50.462;4.850;2023-06-14T03:52:08;16.09;70.69
76040;SHT30;64736;50.462;4.850;2023-06-14T03:54:33;16.12;70.49
76040;SHT30;64736;50.462;4.850;2023-06-14T03:56:59;16.11;69.83
76040;SHT30;64736;50.462;4.850;2023-06-14T03:59:25;15.93;70.55
76040;SHT30;64736;50.462;4.850;2023-06-14T04:01:51;16.05;70.66
76040;SHT30;64736;50.462;4.850;2023-06-14T04:04:18;16.11;70.67
76040;SHT30;64736;50.462;4.850;2023-06-14T04:06:44;15.94;71.05
76040;SHT30;64736;50.462;4.850;2023-06-14T04:09:09;15.81;71.76
76040;SHT30;64736;50.462;4.850;2023-06-14T04:11:35;15.98;71.40
76040;SHT30;64736;50.462;4.850;2023-06-14T04:14:01;15.94;71.39
76040;SHT30;64736;50.462;4.850;2023-06-14T04:16:27;15.84;71.94
76040;SHT30;64736;50.462;4.850;2023-06-14T04:18:54;15.96;71.89
76040;SHT30;64736;50.462;4.850;2023-06-14T04:21:20;16.15;71.35
76040;SHT30;64736;50.462;4.850;2023-06-14T04:23:46;16.04;71.64
76040;SHT30;64736;50.462;4.850;2023-06-14T04:26:11;16.12;71.69
76040;SHT30;64736;50.462;4.850;2023-06-14T04:28:37;16.18;71.59
76040;SHT30;64736;50.462;4.850;2023-06-14T04:31:06;16.02;72.06
76040;SHT30;64736;50.462;4.850;2023-06-14T04:33:36;15.76;72.95
76040;SHT30;64736;50.462;4.850;2023-06-14T04:36:10;15.91;72.65
76040;SHT30;64736;50.462;4.850;2023-06-14T04:38:37;16.14;72.13
76040;SHT30;64736;50.462;4.850;2023-06-14T04:41:03;16.32;71.81
76040;SHT30;64736;50.462;4.850;2023-06-14T04:43:28;16.28;71.73
76040;SHT30;64736;50.462;4.850;2023-06-14T04:45:54;16.04;72.66
76040;SHT30;64736;50.462;4.850;2023-06-14T04:48:21;16.02;72.90
76040;SHT30;64736;50.462;4.850;2023-06-14T04:50:47;16.00;72.81
76040;SHT30;64736;50.462;4.850;2023-06-14T04:53:13;16.22;72.48
76040;SHT30;64736;50.462;4.850;2023-06-14T04:55:38;16.29;72.24
76040;SHT30;64736;50.462;4.850;2023-06-14T04:58:05;16.12;72.65
76040;SHT30;64736;50.462;4.850;2023-06-14T05:00:31;16.01;72.63
76040;SHT30;64736;50.462;4.850;2023-06-14T05:02:57;16.29;72.20
76040;SHT30;64736;50.462;4.850;2023-06-14T05:05:22;16.39;72.00
76040;SHT30;64736;50.462;4.850;2023-06-14T05:07:49;16.42;71.93
76040;SHT30;64736;50.462;4.850;2023-06-14T05:10:15;16.45;71.57
76040;SHT30;64736;50.462;4.850;2023-06-14T05:12:40;16.42;71.31
76040;SHT30;64736;50.462;4.850;2023-06-14T05:15:09;16.35;71.59
76040;SHT30;64736;50.462;4.850;2023-06-14T05:17:35;16.41;71.54
76040;SHT30;64736;50.462;4.850;2023-06-14T05:20:01;16.29;71.55
76040;SHT30;64736;50.462;4.850;2023-06-14T05:22:27;16.42;70.99
76040;SHT30;64736;50.462;4.850;2023-06-14T05:24:52;16.62;70.78
76040;SHT30;64736;50.462;4.850;2023-06-14T05:27:18;16.62;70.48
76040;SHT30;64736;50.462;4.850;2023-06-14T05:29:43;16.69;70.63
76040;SHT30;64736;50.462;4.850;2023-06-14T05:32:09;16.73;70.12
76040;SHT30;64736;50.462;4.850;2023-06-14T05:34:35;16.91;69.47
76040;SHT30;64736;50.462;4.850;2023-06-14T05:37:00;16.65;69.49
76040;SHT30;64736;50.462;4.850;2023-06-14T05:39:26;17.00;67.10
76040;SHT30;64736;50.462;4.850;2023-06-14T05:41:51;17.06;65.89
76040;SHT30;64736;50.462;4.850;2023-06-14T05:44:17;17.27;66.15
76040;SHT30;64736;50.462;4.850;2023-06-14T05:46:43;17.39;66.51
76040;SHT30;64736;50.462;4.850;2023-06-14T05:49:09;17.25;65.92
76040;SHT30;64736;50.462;4.850;2023-06-14T05:51:34;17.36;67.50
76040;SHT30;64736;50.462;4.850;2023-06-14T05:54:00;17.34;66.05
76040;SHT30;64736;50.462;4.850;2023-06-14T05:56:26;17.46;67.45
76040;SHT30;64736;50.462;4.850;2023-06-14T05:58:51;17.46;64.31
76040;SHT30;64736;50.462;4.850;2023-06-14T06:01:17;17.58;63.83
76040;SHT30;64736;50.462;4.850;2023-06-14T06:03:42;17.61;63.68
76040;SHT30;64736;50.462;4.850;2023-06-14T06:06:11;17.56;63.13
76040;SHT30;64736;50.462;4.850;2023-06-14T06:08:38;17.49;63.72
76040;SHT30;64736;50.462;4.850;2023-06-14T06:11:03;17.70;63.31
76040;SHT30;64736;50.462;4.850;2023-06-14T06:13:29;17.83;62.89
76040;SHT30;64736;50.462;4.850;2023-06-14T06:15:54;17.90;62.89
76040;SHT30;64736;50.462;4.850;2023-06-14T06:18:19;17.83;62.98
76040;SHT30;64736;50.462;4.850;2023-06-14T06:20:45;18.11;62.41
76040;SHT30;64736;50.462;4.850;2023-06-14T06:23:12;18.11;61.72
76040;SHT30;64736;50.462;4.850;2023-06-14T06:25:38;18.31;61.38
76040;SHT30;64736;50.462;4.850;2023-06-14T06:28:03;18.52;60.63
76040;SHT30;64736;50.462;4.850;2023-06-14T06:30:28;18.52;59.62
76040;SHT30;64736;50.462;4.850;2023-06-14T06:32:54;18.38;59.52
76040;SHT30;64736;50.462;4.850;2023-06-14T06:35:20;18.47;59.19
76040;SHT30;64736;50.462;4.850;2023-06-14T06:37:46;18.48;59.30
76040;SHT30;64736;50.462;4.850;2023-06-14T06:40:11;18.86;58.09
76040;SHT30;64736;50.462;4.850;2023-06-14T06:42:37;18.96;58.21
76040;SHT30;64736;50.462;4.850;2023-06-14T06:45:03;18.98;57.20
76040;SHT30;64736;50.462;4.850;2023-06-14T06:47:29;19.06;55.88
76040;SHT30;64736;50.462;4.850;2023-06-14T06:49:54;19.33;54.93
76040;SHT30;64736;50.462;4.850;2023-06-14T06:52:20;19.54;53.10
76040;SHT30;64736;50.462;4.850;2023-06-14T06:54:45;19.53;52.36
76040;SHT30;64736;50.462;4.850;2023-06-14T06:57:11;19.43;53.13
76040;SHT30;64736;50.462;4.850;2023-06-14T06:59:36;19.47;54.38
76040;SHT30;64736;50.462;4.850;2023-06-14T07:02:02;19.77;54.06
76040;SHT30;64736;50.462;4.850;2023-06-14T07:04:27;19.81;53.39
76040;SHT30;64736;50.462;4.850;2023-06-14T07:06:53;19.79;53.14
76040;SHT30;64736;50.462;4.850;2023-06-14T07:09:18;19.96;53.14
76040;SHT30;64736;50.462;4.850;2023-06-14T07:11:47;20.06;52.73
76040;SHT30;64736;50.462;4.850;2023-06-14T07:14:12;20.13;53.66
76040;SHT30;64736;50.462;4.850;2023-06-14T07:16:38;20.22;52.40
76040;SHT30;64736;50.462;4.850;2023-06-14T07:19:03;20.54;51.87
76040;SHT30;64736;50.462;4.850;2023-06-14T07:21:29;20.44;53.03
76040;SHT30;64736;50.462;4.850;2023-06-14T07:23:55;20.71;51.97
76040;SHT30;64736;50.462;4.850;2023-06-14T07:26:20;20.81;52.16
76040;SHT30;64736;50.462;4.850;2023-06-14T07:28:46;20.98;51.46
76040;SHT30;64736;50.462;4.850;2023-06-14T07:31:15;20.88;51.33
76040;SHT30;64736;50.462;4.850;2023-06-14T07:33:41;20.91;53.00
76040;SHT30;64736;50.462;4.850;2023-06-14T07:36:07;21.02;51.99
76040;SHT30;64736;50.462;4.850;2023-06-14T07:38:33;21.39;50.87
76040;SHT30;64736;50.462;4.850;2023-06-14T07:40:58;21.50;50.58
76040;SHT30;64736;50.462;4.850;2023-06-14T07:43:23;21.47;51.03
76040;SHT30;64736;50.462;4.850;2023-06-14T07:45:49;21.54;50.76
76040;SHT30;64736;50.462;4.850;2023-06-14T07:48:14;21.53;50.58
76040;SHT30;64736;50.462;4.850;2023-06-14T07:50:40;21.73;50.16
76040;SHT30;64736;50.462;4.850;2023-06-14T07:53:06;21.66;51.32
76040;SHT30;64736;50.462;4.850;2023-06-14T07:55:31;21.57;51.55
76040;SHT30;64736;50.462;4.850;2023-06-14T07:57:58;21.96;49.67
76040;SHT30;64736;50.462;4.850;2023-06-14T08:00:23;21.98;49.74
76040;SHT30;64736;50.462;4.850;2023-06-14T08:02:49;22.01;49.74
76040;SHT30;64736;50.462;4.850;2023-06-14T08:05:15;22.11;49.93
76040;SHT30;64736;50.462;4.850;2023-06-14T08:07:41;22.00;50.40
76040;SHT30;64736;50.462;4.850;2023-06-14T08:10:06;22.05;49.84
76040;SHT30;64736;50.462;4.850;2023-06-14T08:12:32;22.41;49.28
76040;SHT30;64736;50.462;4.850;2023-06-14T08:14:58;22.44;49.02
76040;SHT30;64736;50.462;4.850;2023-06-14T08:17:23;22.53;49.56
76040;SHT30;64736;50.462;4.850;2023-06-14T08:19:48;22.72;48.40
76040;SHT30;64736;50.462;4.850;2023-06-14T08:22:14;22.89;48.84
76040;SHT30;64736;50.462;4.850;2023-06-14T08:24:40;23.02;47.81
76040;SHT30;64736;50.462;4.850;2023-06-14T08:27:06;23.24;48.19
76040;SHT30;64736;50.462;4.850;2023-06-14T08:29:31;22.99;48.79
76040;SHT30;64736;50.462;4.850;2023-06-14T08:31:57;23.07;47.55
76040;SHT30;64736;50.462;4.850;2023-06-14T08:34:22;23.65;45.30
76040;SHT30;64736;50.462;4.850;2023-06-14T08:36:50;23.68;45.04
76040;SHT30;64736;50.462;4.850;2023-06-14T08:39:16;24.12;43.04
76040;SHT30;64736;50.462;4.850;2023-06-14T08:41:43;24.20;42.12
76040;SHT30;64736;50.462;4.850;2023-06-14T08:44:11;24.40;41.46
76040;SHT30;64736;50.462;4.850;2023-06-14T08:46:36;24.16;41.73
76040;SHT30;64736;50.462;4.850;2023-06-14T08:49:02;24.03;40.66
76040;SHT30;64736;50.462;4.850;2023-06-14T08:51:33;23.89;42.49
76040;SHT30;64736;50.462;4.850;2023-06-14T08:54:02;24.06;41.45
76040;SHT30;64736;50.462;4.850;2023-06-14T08:56:29;24.24;42.80
76040;SHT30;64736;50.462;4.850;2023-06-14T08:58:55;24.26;42.46
76040;SHT30;64736;50.462;4.850;2023-06-14T09:01:22;24.77;42.75
76040;SHT30;64736;50.462;4.850;2023-06-14T09:03:48;24.41;41.60
76040;SHT30;64736;50.462;4.850;2023-06-14T09:06:14;24.71;42.61
76040;SHT30;64736;50.462;4.850;2023-06-14T09:08:44;24.43;42.05
76040;SHT30;64736;50.462;4.850;2023-06-14T09:11:13;24.23;42.14
76040;SHT30;64736;50.462;4.850;2023-06-14T09:13:39;24.56;42.88
76040;SHT30;64736;50.462;4.850;2023-06-14T09:16:06;24.26;43.49
76040;SHT30;64736;50.462;4.850;2023-06-14T09:18:34;24.37;43.55
76040;SHT30;64736;50.462;4.850;2023-06-14T09:21:00;24.74;43.18
76040;SHT30;64736;50.462;4.850;2023-06-14T09:23:25;24.51;42.83
76040;SHT30;64736;50.462;4.850;2023-06-14T09:25:51;24.57;42.26
76040;SHT30;64736;50.462;4.850;2023-06-14T09:28:16;24.69;41.81
76040;SHT30;64736;50.462;4.850;2023-06-14T09:30:42;24.58;42.11
76040;SHT30;64736;50.462;4.850;2023-06-14T09:33:07;24.46;41.87
76040;SHT30;64736;50.462;4.850;2023-06-14T09:35:33;24.47;42.76
76040;SHT30;64736;50.462;4.850;2023-06-14T09:37:59;24.61;42.94
76040;SHT30;64736;50.462;4.850;2023-06-14T09:40:24;25.08;42.83
76040;SHT30;64736;50.462;4.850;2023-06-14T09:42:50;24.64;40.02
76040;SHT30;64736;50.462;4.850;2023-06-14T09:45:16;24.81;39.69
76040;SHT30;64736;50.462;4.850;2023-06-14T09:47:48;24.57;41.87
76040;SHT30;64736;50.462;4.850;2023-06-14T09:50:14;24.56;41.81
76040;SHT30;64736;50.462;4.850;2023-06-14T09:52:39;24.87;41.28
76040;SHT30;64736;50.462;4.850;2023-06-14T09:55:12;25.02;41.07
76040;SHT30;64736;50.462;4.850;2023-06-14T09:57:40;24.95;40.44
76040;SHT30;64736;50.462;4.850;2023-06-14T10:00:08;25.22;37.78
76040;SHT30;64736;50.462;4.850;2023-06-14T10:02:37;25.27;38.45
76040;SHT30;64736;50.462;4.850;2023-06-14T10:05:05;25.19;37.16
76040;SHT30;64736;50.462;4.850;2023-06-14T10:08:23;25.63;36.17
76040;SHT30;64736;50.462;4.850;2023-06-14T10:10:23;25.97;36.68
76040;SHT30;64736;50.462;4.850;2023-06-14T10:12:48;26.36;35.64
76040;SHT30;64736;50.462;4.850;2023-06-14T10:15:19;25.49;36.09
76040;SHT30;64736;50.462;4.850;2023-06-14T10:17:49;25.88;35.61
76040;SHT30;64736;50.462;4.850;2023-06-14T10:22:43;26.40;34.47
76040;SHT30;64736;50.462;4.850;2023-06-14T10:25:13;26.53;34.72
76040;SHT30;64736;50.462;4.850;2023-06-14T10:27:51;26.04;34.85
76040;SHT30;64736;50.462;4.850;2023-06-14T10:30:17;26.18;35.24
76040;SHT30;64736;50.462;4.850;2023-06-14T10:33:25;26.12;34.80
76040;SHT30;64736;50.462;4.850;2023-06-14T10:35:31;26.53;33.76
76040;SHT30;64736;50.462;4.850;2023-06-14T10:38:07;26.77;34.13
76040;SHT30;64736;50.462;4.850;2023-06-14T10:40:32;27.28;33.45
76040;SHT30;64736;50.462;4.850;2023-06-14T10:42:58;26.82;34.13
76040;SHT30;64736;50.462;4.850;2023-06-14T10:45:23;27.15;33.18
76040;SHT30;64736;50.462;4.850;2023-06-14T10:47:49;26.84;33.18
76040;SHT30;64736;50.462;4.850;2023-06-14T10:50:17;27.34;33.11
76040;SHT30;64736;50.462;4.850;2023-06-14T10:52:44;27.46;32.88
76040;SHT30;64736;50.462;4.850;2023-06-14T10:57:40;26.48;34.13
76040;SHT30;64736;50.462;4.850;2023-06-14T11:00:07;27.78;31.94
76040;SHT30;64736;50.462;4.850;2023-06-14T11:05:48;26.88;33.24
76040;SHT30;64736;50.462;4.850;2023-06-14T11:11:06;26.59;33.15
76040;SHT30;64736;50.462;4.850;2023-06-14T11:13:32;27.59;31.65
76040;SHT30;64736;50.462;4.850;2023-06-14T11:15:58;26.90;33.42
76040;SHT30;64736;50.462;4.850;2023-06-14T11:18:24;27.58;33.02
76040;SHT30;64736;50.462;4.850;2023-06-14T11:20:50;27.52;32.54
76040;SHT30;64736;50.462;4.850;2023-06-14T11:23:15;27.89;32.22
76040;SHT30;64736;50.462;4.850;2023-06-14T11:25:41;27.07;32.64
76040;SHT30;64736;50.462;4.850;2023-06-14T11:28:06;27.31;31.49
76040;SHT30;64736;50.462;4.850;2023-06-14T11:30:32;27.35;31.96
76040;SHT30;64736;50.462;4.850;2023-06-14T11:32:57;27.45;31.83
76040;SHT30;64736;50.462;4.850;2023-06-14T11:35:23;26.90;32.35
76040;SHT30;64736;50.462;4.850;2023-06-14T11:37:49;27.66;31.37
76040;SHT30;64736;50.462;4.850;2023-06-14T11:40:17;26.63;31.50
76040;SHT30;64736;50.462;4.850;2023-06-14T11:42:43;27.49;31.62
76040;SHT30;64736;50.462;4.850;2023-06-14T11:45:09;28.07;31.47
76040;SHT30;64736;50.462;4.850;2023-06-14T11:47:35;27.62;32.26
76040;SHT30;64736;50.462;4.850;2023-06-14T11:50:01;27.86;32.38
76040;SHT30;64736;50.462;4.850;2023-06-14T11:52:27;27.46;32.14
76040;SHT30;64736;50.462;4.850;2023-06-14T11:54:52;27.35;31.70
76040;SHT30;64736;50.462;4.850;2023-06-14T11:57:18;27.92;31.69
76040;SHT30;64736;50.462;4.850;2023-06-14T11:59:44;27.70;32.56
76040;SHT30;64736;50.462;4.850;2023-06-14T12:02:14;27.59;32.32
76040;SHT30;64736;50.462;4.850;2023-06-14T12:04:46;28.14;32.05
76040;SHT30;64736;50.462;4.850;2023-06-14T12:07:15;27.51;33.36
76040;SHT30;64736;50.462;4.850;2023-06-14T12:12:20;27.49;32.85
76040;SHT30;64736;50.462;4.850;2023-06-14T12:14:46;27.21;32.87
76040;SHT30;64736;50.462;4.850;2023-06-14T12:17:12;27.55;31.76
76040;SHT30;64736;50.462;4.850;2023-06-14T12:19:41;27.41;31.87
76040;SHT30;64736;50.462;4.850;2023-06-14T12:22:09;27.55;31.86
76040;SHT30;64736;50.462;4.850;2023-06-14T12:24:35;27.75;31.88
76040;SHT30;64736;50.462;4.850;2023-06-14T12:27:00;27.85;32.06
76040;SHT30;64736;50.462;4.850;2023-06-14T12:29:28;27.42;32.70
76040;SHT30;64736;50.462;4.850;2023-06-14T12:31:54;27.63;32.17
76040;SHT30;64736;50.462;4.850;2023-06-14T12:34:22;27.63;32.57
76040;SHT30;64736;50.462;4.850;2023-06-14T12:36:49;27.61;32.52
76040;SHT30;64736;50.462;4.850;2023-06-14T12:39:15;28.02;31.77
76040;SHT30;64736;50.462;4.850;2023-06-14T12:41:41;28.07;31.35
76040;SHT30;64736;50.462;4.850;2023-06-14T12:44:07;28.31;31.25
76040;SHT30;64736;50.462;4.850;2023-06-14T12:46:32;27.79;31.86
76040;SHT30;64736;50.462;4.850;2023-06-14T12:48:58;27.67;32.34
76040;SHT30;64736;50.462;4.850;2023-06-14T12:51:24;27.17;31.88
76040;SHT30;64736;50.462;4.850;2023-06-14T12:53:50;27.44;31.64
76040;SHT30;64736;50.462;4.850;2023-06-14T12:56:16;28.02;31.07
76040;SHT30;64736;50.462;4.850;2023-06-14T12:58:42;28.25;30.96
76040;SHT30;64736;50.462;4.850;2023-06-14T13:01:07;29.00;30.65
76040;SHT30;64736;50.462;4.850;2023-06-14T13:03:33;28.28;31.35
76040;SHT30;64736;50.462;4.850;2023-06-14T13:05:59;28.33;30.91
76040;SHT30;64736;50.462;4.850;2023-06-14T13:08:25;27.70;30.77
76040;SHT30;64736;50.462;4.850;2023-06-14T13:10:51;27.86;29.86
76040;SHT30;64736;50.462;4.850;2023-06-14T13:13:17;28.72;29.81
76040;SHT30;64736;50.462;4.850;2023-06-14T13:15:42;27.18;32.19
76040;SHT30;64736;50.462;4.850;2023-06-14T13:18:09;27.88;31.44
76040;SHT30;64736;50.462;4.850;2023-06-14T13:20:38;27.88;30.95
76040;SHT30;64736;50.462;4.850;2023-06-14T13:23:04;28.20;30.34
76040;SHT30;64736;50.462;4.850;2023-06-14T13:25:31;27.67;30.58
76040;SHT30;64736;50.462;4.850;2023-06-14T13:27:56;27.54;30.93
76040;SHT30;64736;50.462;4.850;2023-06-14T13:30:22;27.54;30.95
76040;SHT30;64736;50.462;4.850;2023-06-14T13:32:47;27.92;29.84
76040;SHT30;64736;50.462;4.850;2023-06-14T13:35:13;27.67;29.97
76040;SHT30;64736;50.462;4.850;2023-06-14T13:37:38;28.07;30.40
76040;SHT30;64736;50.462;4.850;2023-06-14T13:40:04;28.24;30.31
76040;SHT30;64736;50.462;4.850;2023-06-14T13:42:30;27.58;31.05
76040;SHT30;64736;50.462;4.850;2023-06-14T13:44:57;28.04;30.92
76040;SHT30;64736;50.462;4.850;2023-06-14T13:47:23;27.67;30.93
76040;SHT30;64736;50.462;4.850;2023-06-14T13:49:48;28.68;30.02
76040;SHT30;64736;50.462;4.850;2023-06-14T13:52:14;28.68;29.79
76040;SHT30;64736;50.462;4.850;2023-06-14T13:54:41;27.92;30.40
76040;SHT30;64736;50.462;4.850;2023-06-14T13:57:07;28.43;29.97
76040;SHT30;64736;50.462;4.850;2023-06-14T13:59:33;29.06;29.59
76040;SHT30;64736;50.462;4.850;2023-06-14T14:01:58;28.10;30.89
76040;SHT30;64736;50.462;4.850;2023-06-14T14:04:24;28.21;31.21
76040;SHT30;64736;50.462;4.850;2023-06-14T14:06:52;29.46;29.63
76040;SHT30;64736;50.462;4.850;2023-06-14T14:09:18;28.48;30.33
76040;SHT30;64736;50.462;4.850;2023-06-14T14:11:44;27.61;31.65
76040;SHT30;64736;50.462;4.850;2023-06-14T14:14:10;29.16;30.65
76040;SHT30;64736;50.462;4.850;2023-06-14T14:16:36;28.50;31.10
76040;SHT30;64736;50.462;4.850;2023-06-14T14:19:02;28.28;31.13
76040;SHT30;64736;50.462;4.850;2023-06-14T14:21:28;28.17;30.97
76040;SHT30;64736;50.462;4.850;2023-06-14T14:23:55;28.52;30.42
76040;SHT30;64736;50.462;4.850;2023-06-14T14:26:23;28.40;29.90
76040;SHT30;64736;50.462;4.850;2023-06-14T14:28:51;28.24;30.34
76040;SHT30;64736;50.462;4.850;2023-06-14T14:31:17;28.61;29.98
76040;SHT30;64736;50.462;4.850;2023-06-14T14:33:42;28.52;30.06
76040;SHT30;64736;50.462;4.850;2023-06-14T14:36:08;29.27;29.54
76040;SHT30;64736;50.462;4.850;2023-06-14T14:38:34;29.67;28.55
76040;SHT30;64736;50.462;4.850;2023-06-14T14:41:00;28.74;29.15
76040;SHT30;64736;50.462;4.850;2023-06-14T14:43:25;29.49;28.12
76040;SHT30;64736;50.462;4.850;2023-06-14T14:45:55;28.79;28.51
76040;SHT30;64736;50.462;4.850;2023-06-14T14:48:21;27.94;28.68
76040;SHT30;64736;50.462;4.850;2023-06-14T14:50:47;28.38;28.15
76040;SHT30;64736;50.462;4.850;2023-06-14T14:53:13;29.02;27.65
76040;SHT30;64736;50.462;4.850;2023-06-14T14:55:38;28.94;27.39
76040;SHT30;64736;50.462;4.850;2023-06-14T14:58:05;27.37;29.15
76040;SHT30;64736;50.462;4.850;2023-06-14T15:00:31;28.04;28.57
76040;SHT30;64736;50.462;4.850;2023-06-14T15:02:57;28.13;28.40
76040;SHT30;64736;50.462;4.850;2023-06-14T15:05:22;28.31;28.24
76040;SHT30;64736;50.462;4.850;2023-06-14T15:07:48;28.96;27.42
76040;SHT30;64736;50.462;4.850;2023-06-14T15:10:15;28.33;27.81
76040;SHT30;64736;50.462;4.850;2023-06-14T15:12:41;28.62;28.01
76040;SHT30;64736;50.462;4.850;2023-06-14T15:15:06;28.91;27.58
76040;SHT30;64736;50.462;4.850;2023-06-14T15:17:32;29.54;27.32
76040;SHT30;64736;50.462;4.850;2023-06-14T15:19:57;28.33;28.13
76040;SHT30;64736;50.462;4.850;2023-06-14T15:22:23;29.25;27.71
76040;SHT30;64736;50.462;4.850;2023-06-14T15:24:48;29.05;27.52
76040;SHT30;64736;50.462;4.850;2023-06-14T15:27:14;28.31;28.54
76040;SHT30;64736;50.462;4.850;2023-06-14T15:29:42;28.40;28.39
76040;SHT30;64736;50.462;4.850;2023-06-14T15:32:08;28.23;28.42
76040;SHT30;64736;50.462;4.850;2023-06-14T15:34:34;28.65;28.47
76040;SHT30;64736;50.462;4.850;2023-06-14T15:37:00;28.83;28.47
76040;SHT30;64736;50.462;4.850;2023-06-14T15:39:28;28.76;28.61
76040;SHT30;64736;50.462;4.850;2023-06-14T15:41:55;27.70;29.16
76040;SHT30;64736;50.462;4.850;2023-06-14T15:44:21;28.38;28.82